Oceanside 95 — WBC8822 — position and weather

sailwx.info

Track history (hours):
 
Tides and Currents Weather Stations Pressure Air Temp Water Temp Dewpoint Dewpoint Depression Visibility Wind Speed Wind Dir Waves Ship Positions

Oceanside 95

Owner: HELGRENS OCEANSIDE SPORTFISHING TRIPS IN, OCEANSIDE, CA. More information available from US FCC via Universal Licensing System and Coast Guard Vessel Documentation Center.

Last reported at 2018-Aug-20 16:04 UTC. Time now 2018-Aug-20 16:19 UTC.
Position N 33°12' W 117°23'.

Type: Wing in ground effect craft. MMSI: 367150450.

Date/timePositionNaut miles runAvg speedWind from/ knotsBaromVisibWave heightAir tempDewpointWater temp
2018-Aug-20 16:04N 33°12' W 117°23'0 0.0
2018-Aug-20 16:00N 33°12' W 117°23'0 0.0
2018-Aug-20 15:31N 33°12' W 117°23'0 0.0
2018-Aug-20 15:03N 33°12' W 117°23'0 0.0
2018-Aug-20 15:00N 33°12' W 117°23'0 0.0
2018-Aug-20 14:03N 33°12' W 117°23'0 0.0
2018-Aug-20 14:01N 33°12' W 117°23'0 0.0
2018-Aug-20 13:31N 33°12' W 117°23'0 0.0
2018-Aug-20 13:04N 33°12' W 117°23'0 0.0
2018-Aug-20 13:01N 33°12' W 117°23'0 0.0
2018-Aug-20 12:30N 33°12' W 117°23'0 0.0
2018-Aug-20 12:03N 33°12' W 117°23'0 0.2
2018-Aug-20 12:00N 33°12' W 117°23'0 0.0
2018-Aug-20 11:30N 33°12' W 117°23'0 0.0
2018-Aug-20 11:03N 33°12' W 117°23'0 0.0
2018-Aug-20 11:01N 33°12' W 117°23'0 0.0
2018-Aug-20 10:30N 33°12' W 117°23'0 0.0
2018-Aug-20 10:03N 33°12' W 117°23'0 0.0
2018-Aug-20 10:00N 33°12' W 117°23'0 0.0
2018-Aug-20 09:30N 33°12' W 117°23'0 0.0
2018-Aug-20 09:03N 33°12' W 117°23'0 0.0
2018-Aug-20 09:00N 33°12' W 117°23'0 0.0
2018-Aug-20 08:30N 33°12' W 117°23'0 0.0
2018-Aug-20 08:04N 33°12' W 117°23'0 0.0
2018-Aug-20 08:00N 33°12' W 117°23'0 0.0
2018-Aug-20 07:31N 33°12' W 117°23'0 0.0
2018-Aug-20 07:04N 33°12' W 117°23'0 0.1
2018-Aug-20 07:00N 33°12' W 117°23'0 0.0
2018-Aug-20 06:30N 33°12' W 117°23'0 0.0
2018-Aug-20 06:04N 33°12' W 117°23'0 0.1
2018-Aug-20 06:01N 33°12' W 117°23'0 0.0
2018-Aug-20 05:30N 33°12' W 117°23'0 0.0
2018-Aug-20 05:03N 33°12' W 117°23'0 0.0
2018-Aug-20 05:00N 33°12' W 117°23'0 0.0
2018-Aug-20 04:47N 33°12' W 117°23'0 0.0
2018-Aug-20 04:30N 33°12' W 117°23'0 0.0
2018-Aug-20 04:00N 33°12' W 117°23'0 0.0
2018-Aug-20 03:30N 33°12' W 117°23'0 0.0
2018-Aug-20 03:00N 33°12' W 117°23'0 0.1
2018-Aug-20 02:30N 33°12' W 117°23'4 7.4
2018-Aug-20 02:00N 33°10' W 117°27'5 9.4
2018-Aug-20 01:31N 33°06' W 117°30'5 9.4
2018-Aug-20 01:00N 33°03' W 117°34'5 9.6
2018-Aug-20 00:31N 32°59' W 117°38'5 9.7
2018-Aug-20 00:00N 32°55' W 117°41'5 9.5
2018-Aug-19 23:30N 32°51' W 117°45'5 9.2
2018-Aug-19 23:00N 32°48' W 117°48'5 9.4
2018-Aug-19 22:30N 32°44' W 117°52'5 9.5
2018-Aug-19 22:01N 32°41' W 117°55'3 6.3
2018-Aug-19 21:30N 32°38' W 117°58'4 8.7
2018-Aug-19 21:00N 32°35' W 118°02'3 6.1
2018-Aug-19 20:31N 32°37' W 118°05'3 5.9
2018-Aug-19 20:00N 32°39' W 118°07'2 5.0
2018-Aug-19 19:31N 32°40' W 118°10'4 7.0
2018-Aug-19 19:00N 32°40' W 118°14'2 3.3
2018-Aug-19 18:30N 32°41' W 118°16'4 7.7
2018-Aug-19 18:00N 32°41' W 118°21'2 4.8
2018-Aug-19 17:29N 32°42' W 118°23'3 5.3
2018-Aug-19 17:00N 32°43' W 118°26'4 7.0
2018-Aug-19 16:30N 32°45' W 118°29'4 8.1
2018-Aug-19 16:01N 32°48' W 118°33'4 6.9
2018-Aug-19 15:30N 32°50' W 118°36'2 4.1
2018-Aug-19 14:58N 32°48' W 118°35'3 6.0
2018-Aug-19 14:26N 32°47' W 118°31'3 7.4
2018-Aug-19 14:01N 32°48' W 118°35'1 1.7
2018-Aug-19 13:29N 32°48' W 118°36'0 0.3
2018-Aug-19 13:00N 32°48' W 118°36'0 0.2
2018-Aug-19 12:26N 32°48' W 118°36'0 0.2
2018-Aug-19 12:00N 32°48' W 118°36'0 0.3
2018-Aug-19 11:30N 32°48' W 118°36'0 0.4
2018-Aug-19 10:59N 32°48' W 118°35'0 0.8
2018-Aug-19 10:30N 32°48' W 118°35'3 4.9
2018-Aug-19 09:58N 32°51' W 118°37'0 0.7
2018-Aug-19 09:30N 32°51' W 118°37'0 0.6
2018-Aug-19 09:00N 32°51' W 118°37'0 0.6
2018-Aug-19 08:30N 32°52' W 118°37'0 0.6
2018-Aug-19 08:00N 32°52' W 118°37'1 1.3
2018-Aug-19 07:30N 32°51' W 118°36'0 0.7
2018-Aug-19 07:01N 32°52' W 118°36'0 0.8
2018-Aug-19 06:27N 32°52' W 118°37'0 0.5
2018-Aug-19 05:50N 32°52' W 118°37'0 0.4
2018-Aug-19 05:26N 32°52' W 118°37'0 0.2
2018-Aug-19 04:48N 32°52' W 118°37'1 2.6
2018-Aug-19 04:23N 32°51' W 118°36'3 7.0
2018-Aug-19 04:01N 32°48' W 118°35'0 0.4
2018-Aug-19 03:30N 32°48' W 118°36'0 0.7
2018-Aug-19 03:00N 32°49' W 118°36'1 1.5
2018-Aug-19 02:30N 32°48' W 118°36'0 0.7
2018-Aug-19 02:00N 32°48' W 118°35'0 0.6
2018-Aug-19 01:26N 32°48' W 118°35'0 0.8
2018-Aug-19 01:00N 32°48' W 118°35'0 0.5
2018-Aug-19 00:30N 32°49' W 118°35'1 2.1
2018-Aug-19 00:00N 32°49' W 118°35'4 4.7
2018-Aug-18 23:12N 32°53' W 118°36'2 9.2
2018-Aug-18 23:00N 32°55' W 118°37'4 8.9
2018-Aug-18 22:30N 32°59' W 118°39'1 2.5
2018-Aug-18 22:00N 33°00' W 118°39'1 2.8
2018-Aug-18 21:30N 32°60' W 118°38'0 0.8
2018-Aug-18 21:00N 32°60' W 118°38'1 1.4
2018-Aug-18 20:30N 33°00' W 118°38'1 1.8
2018-Aug-18 20:00N 32°60' W 118°37'0 0.6
2018-Aug-18 19:30N 32°60' W 118°37'2 3.8
2018-Aug-18 19:00N 32°58' W 118°36'4 6.8
2018-Aug-18 18:24N 32°54' W 118°36'4 5.0
2018-Aug-18 17:38N 32°50' W 118°36'1 4.2
2018-Aug-18 17:30N 32°51' W 118°35'1 1.1
2018-Aug-18 17:00N 32°51' W 118°35'1 2.1
2018-Aug-18 16:30N 32°52' W 118°34'1 2.7
2018-Aug-18 16:00N 32°51' W 118°34'3 5.1
2018-Aug-18 15:30N 32°53' W 118°36'0 0.3
2018-Aug-18 15:00N 32°53' W 118°37'0 0.2
2018-Aug-18 14:30N 32°53' W 118°37'0 0.2
2018-Aug-18 14:00N 32°52' W 118°37'0 0.4
2018-Aug-18 13:30N 32°52' W 118°37'0 0.3
2018-Aug-18 13:00N 32°52' W 118°37'0 0.3
2018-Aug-18 12:30N 32°52' W 118°37'1 2.1
2018-Aug-18 12:00N 32°52' W 118°36'1 1.5
2018-Aug-18 11:30N 32°53' W 118°36'1 1.2
2018-Aug-18 11:00N 32°53' W 118°35'4 8.3
2018-Aug-18 10:28N 32°49' W 118°32'4 8.4
2018-Aug-18 09:57N 32°47' W 118°27'4 9.0
2018-Aug-18 09:30N 32°47' W 118°23'5 9.0
2018-Aug-18 09:00N 32°50' W 118°18'5 9.2
2018-Aug-18 08:30N 32°52' W 118°13'5 9.1
2018-Aug-18 08:00N 32°54' W 118°09'5 9.4
2018-Aug-18 07:29N 32°56' W 118°03'5 9.3
2018-Aug-18 07:00N 32°58' W 117°58'5 9.4
2018-Aug-18 06:30N 32°60' W 117°53'5 9.1
2018-Aug-18 06:00N 33°02' W 117°48'4 8.9
2018-Aug-18 05:30N 33°04' W 117°44'5 9.0
2018-Aug-18 05:00N 33°06' W 117°39'5 9.3
2018-Aug-18 04:30N 33°08' W 117°34'4 8.9
2018-Aug-18 04:00N 33°10' W 117°29'4 8.4
2018-Aug-18 03:30N 33°12' W 117°25'1 2.4
2018-Aug-18 03:00N 33°12' W 117°23'0 0.4
2018-Aug-18 02:30N 33°12' W 117°24'0 0.0
2018-Aug-18 02:00N 33°12' W 117°24'0 0.0
2018-Aug-18 01:30N 33°12' W 117°24'0 0.0
2018-Aug-18 01:00N 33°12' W 117°24'0 0.0
2018-Aug-18 00:30N 33°12' W 117°24'0 0.0
2018-Aug-18 00:00N 33°12' W 117°24'0 0.0
2018-Aug-17 23:30N 33°12' W 117°24'0 0.0
2018-Aug-17 23:00N 33°12' W 117°24'0 0.0
2018-Aug-17 22:30N 33°12' W 117°24'0 0.0
2018-Aug-17 22:00N 33°12' W 117°24'0 0.0
2018-Aug-17 21:30N 33°12' W 117°24'0 0.2
2018-Aug-17 21:00N 33°12' W 117°24'0 0.2
2018-Aug-17 20:30N 33°12' W 117°24'0 0.0
2018-Aug-17 20:00N 33°12' W 117°24'0 0.0
2018-Aug-17 19:30N 33°12' W 117°24'0 0.0
2018-Aug-17 19:00N 33°12' W 117°24'0 0.0
2018-Aug-17 18:30N 33°12' W 117°24'0 0.0
2018-Aug-17 18:00N 33°12' W 117°24'0 0.0
2018-Aug-17 17:30N 33°12' W 117°24'0 0.0
2018-Aug-17 17:00N 33°12' W 117°24'0 0.0
2018-Aug-17 16:30N 33°12' W 117°24'0 0.0
2018-Aug-17 16:00N 33°12' W 117°24'0 0.1
2018-Aug-17 15:30N 33°12' W 117°24'0 0.3
2018-Aug-17 15:00N 33°12' W 117°23'0 0.0
2018-Aug-17 14:30N 33°12' W 117°23'3 3.2
2018-Aug-17 13:30N 33°09' W 117°25'3 6.2
2018-Aug-17 13:00N 33°06' W 117°25'3 6.4
2018-Aug-17 12:30N 33°03' W 117°25'3 6.5
2018-Aug-17 12:01N 32°60' W 117°25'3 6.5
2018-Aug-17 11:30N 32°57' W 117°26'3 6.3
2018-Aug-17 11:00N 32°53' W 117°26'3 6.3
2018-Aug-17 10:30N 32°50' W 117°26'3 6.4
2018-Aug-17 10:00N 32°47' W 117°26'3 6.5
2018-Aug-17 09:30N 32°44' W 117°26'3 6.6
2018-Aug-17 09:00N 32°40' W 117°26'3 6.5
2018-Aug-17 08:30N 32°37' W 117°26'3 6.2
2018-Aug-17 08:00N 32°34' W 117°26'3 6.2
2018-Aug-17 07:30N 32°31' W 117°27'3 6.7
2018-Aug-17 07:00N 32°28' W 117°27'3 6.9
2018-Aug-17 06:30N 32°24' W 117°27'4 6.7
2018-Aug-17 05:58N 32°21' W 117°27'3 6.5
2018-Aug-17 05:30N 32°18' W 117°28'3 6.4
2018-Aug-17 05:00N 32°15' W 117°28'4 6.4
2018-Aug-17 04:23N 32°11' W 117°28'10 0.5
2018-Aug-16 08:41N 32°18' W 117°20'4 7.7
2018-Aug-16 08:09N 32°22' W 117°20'2 7.9
2018-Aug-16 07:53N 32°24' W 117°20'3 7.8
2018-Aug-16 07:30N 32°27' W 117°21'4 7.8
2018-Aug-16 07:00N 32°31' W 117°21'4 8.1
2018-Aug-16 06:30N 32°35' W 117°22'4 8.1
2018-Aug-16 05:59N 32°39' W 117°22'4 7.9
2018-Aug-16 05:30N 32°43' W 117°23'4 7.7
2018-Aug-16 05:00N 32°47' W 117°23'4 8.2
2018-Aug-16 04:30N 32°51' W 117°23'4 8.3
2018-Aug-16 04:00N 32°55' W 117°23'4 8.1
2018-Aug-16 03:30N 32°59' W 117°24'4 8.0
2018-Aug-16 03:00N 33°03' W 117°24'4 8.2
2018-Aug-16 02:30N 33°07' W 117°24'4 8.2
2018-Aug-16 02:00N 33°11' W 117°24'1 3.0
2018-Aug-16 01:30N 33°12' W 117°24'0 0.5
2018-Aug-16 01:00N 33°12' W 117°23'0 0.0
2018-Aug-16 00:30N 33°12' W 117°23'0 0.0
2018-Aug-16 00:00N 33°12' W 117°23'0 0.0
2018-Aug-15 23:30N 33°12' W 117°23'0 0.0
2018-Aug-15 23:00N 33°12' W 117°23'0 0.4
2018-Aug-15 22:30N 33°12' W 117°24'0 0.0
2018-Aug-15 22:00N 33°12' W 117°24'0 0.0
2018-Aug-15 21:30N 33°12' W 117°24'0 0.0
2018-Aug-15 21:00N 33°12' W 117°24'0 0.0
2018-Aug-15 20:30N 33°12' W 117°24'0 0.0
2018-Aug-15 20:00N 33°12' W 117°24'0 0.0
2018-Aug-15 19:30N 33°12' W 117°24'0 0.0
2018-Aug-15 19:00N 33°12' W 117°24'0 0.0
2018-Aug-15 18:30N 33°12' W 117°24'0 0.0
2018-Aug-15 18:00N 33°12' W 117°24'0 0.0
2018-Aug-15 17:30N 33°12' W 117°24'0 0.0
2018-Aug-15 17:00N 33°12' W 117°24'0 0.4
2018-Aug-15 16:30N 33°12' W 117°23'0 0.0
2018-Aug-15 16:00N 33°12' W 117°23'0 0.0
2018-Aug-15 15:30N 33°12' W 117°23'0 0.0
2018-Aug-15 15:00N 33°12' W 117°23'0 0.0
2018-Aug-15 14:30N 33°12' W 117°23'0 0.0
2018-Aug-15 14:00N 33°12' W 117°23'0 0.0
2018-Aug-15 13:30N 33°12' W 117°23'0 0.0
2018-Aug-15 13:00N 33°12' W 117°23'0 0.0
2018-Aug-15 12:30N 33°12' W 117°23'0 0.0
2018-Aug-15 12:00N 33°12' W 117°23'0 0.0
2018-Aug-15 11:30N 33°12' W 117°23'0 0.0
2018-Aug-15 11:00N 33°12' W 117°23'0 0.0
2018-Aug-15 10:30N 33°12' W 117°23'0 0.0
2018-Aug-15 10:00N 33°12' W 117°23'0 0.0
2018-Aug-15 09:30N 33°12' W 117°23'0 0.0
2018-Aug-15 09:00N 33°12' W 117°23'0 0.0
2018-Aug-15 08:30N 33°12' W 117°23'0 0.0
2018-Aug-15 08:00N 33°12' W 117°23'0 0.0
2018-Aug-15 07:30N 33°12' W 117°23'0 0.0
2018-Aug-15 07:00N 33°12' W 117°23'0 0.0
2018-Aug-15 06:30N 33°12' W 117°23'0 0.0
2018-Aug-15 06:00N 33°12' W 117°23'0 0.0
2018-Aug-15 05:30N 33°12' W 117°23'0 0.0
2018-Aug-15 05:00N 33°12' W 117°23'0 0.0
2018-Aug-15 04:30N 33°12' W 117°23'0 0.0
2018-Aug-15 04:00N 33°12' W 117°23'2 3.3
2018-Aug-15 03:30N 33°12' W 117°25'5 9.4
2018-Aug-15 03:00N 33°09' W 117°30'5 9.2
2018-Aug-15 02:30N 33°07' W 117°35'5 9.2
2018-Aug-15 02:00N 33°04' W 117°39'4 8.5
2018-Aug-15 01:30N 33°02' W 117°44'4 8.7
2018-Aug-15 01:00N 32°60' W 117°48'4 8.4
2018-Aug-15 00:30N 32°58' W 117°52'4 8.4
2018-Aug-15 00:00N 32°56' W 117°57'4 8.7
2018-Aug-14 23:30N 32°54' W 118°01'4 8.8
2018-Aug-14 23:00N 32°51' W 118°06'5 9.3
2018-Aug-14 22:30N 32°49' W 118°11'5 9.5
2018-Aug-14 22:00N 32°47' W 118°16'4 9.2
2018-Aug-14 21:31N 32°44' W 118°20'5 9.0
2018-Aug-14 21:00N 32°43' W 118°25'4 7.6
2018-Aug-14 20:30N 32°46' W 118°29'4 1.4
2018-Aug-14 17:54N 32°49' W 118°30'4 8.7
2018-Aug-14 17:30N 32°47' W 118°34'1 2.4
2018-Aug-14 17:00N 32°47' W 118°35'0 0.7
2018-Aug-14 16:30N 32°47' W 118°35'3 5.5
2018-Aug-14 16:00N 32°48' W 118°32'2 3.1
2018-Aug-14 15:26N 32°49' W 118°33'3 5.6
2018-Aug-14 14:52N 32°51' W 118°36'2 5.8
2018-Aug-14 14:30N 32°52' W 118°38'1 1.6
2018-Aug-14 14:00N 32°52' W 118°38'0 0.2
2018-Aug-14 13:24N 32°52' W 118°38'0 0.3
2018-Aug-14 12:54N 32°52' W 118°38'0 0.4
2018-Aug-14 12:29N 32°52' W 118°38'1 0.9
2018-Aug-14 11:06N 32°51' W 118°37'0 0.3
2018-Aug-14 11:00N 32°51' W 118°37'1 1.3
2018-Aug-14 10:30N 32°52' W 118°38'2 3.2
2018-Aug-14 10:00N 32°52' W 118°36'3 6.1
2018-Aug-14 09:30N 32°49' W 118°36'2 4.5
2018-Aug-14 09:00N 32°46' W 118°35'1 1.5
2018-Aug-14 08:30N 32°46' W 118°35'1 1.6
2018-Aug-14 07:57N 32°45' W 118°36'2 4.3
2018-Aug-14 07:30N 32°44' W 118°38'3 5.6
2018-Aug-14 07:00N 32°42' W 118°41'3 5.7
2018-Aug-14 06:30N 32°41' W 118°44'3 5.6
2018-Aug-14 06:00N 32°39' W 118°46'3 5.5
2018-Aug-14 05:30N 32°38' W 118°49'3 5.6
2018-Aug-14 05:00N 32°36' W 118°51'3 5.7
2018-Aug-14 04:30N 32°33' W 118°54'3 5.6
2018-Aug-14 04:00N 32°32' W 118°56'3 5.9
2018-Aug-14 03:29N 32°30' W 118°59'3 5.7
2018-Aug-14 03:00N 32°28' W 119°02'3 5.7
2018-Aug-14 02:26N 32°26' W 119°05'0 0.1
2018-Aug-13 21:13N 32°26' W 119°05'0 0.0
2018-Aug-13 20:59N 32°26' W 119°05'0 0.0
2018-Aug-13 20:10N 32°26' W 119°05'0 0.0
2018-Aug-13 19:51N 32°26' W 119°05'0 0.0
2018-Aug-13 19:20N 32°26' W 119°05'0 0.1
2018-Aug-13 17:47N 32°26' W 119°05'0 0.0
2018-Aug-13 17:16N 32°26' W 119°05'0 0.2
2018-Aug-13 17:00N 32°26' W 119°05'0 0.0
2018-Aug-13 16:29N 32°26' W 119°05'0 0.1
2018-Aug-13 16:00N 32°26' W 119°05'0 0.1
2018-Aug-13 15:30N 32°26' W 119°05'0 0.1
2018-Aug-13 15:00N 32°26' W 119°05'3 5.5
2018-Aug-13 14:30N 32°27' W 119°02'4 8.6
2018-Aug-13 14:00N 32°29' W 118°57'4 8.3
2018-Aug-13 13:30N 32°31' W 118°53'4 9.0
2018-Aug-13 13:00N 32°33' W 118°49'5 9.4
2018-Aug-13 12:29N 32°35' W 118°43'5 9.7
2018-Aug-13 12:00N 32°38' W 118°39'510.0
2018-Aug-13 11:30N 32°40' W 118°34'510.1
2018-Aug-13 11:00N 32°43' W 118°28'5 9.8
2018-Aug-13 10:30N 32°45' W 118°23'5 9.6
2018-Aug-13 10:00N 32°47' W 118°18'5 9.6
2018-Aug-13 09:29N 32°50' W 118°13'5 9.8
2018-Aug-13 09:00N 32°52' W 118°08'510.0
2018-Aug-13 08:30N 32°55' W 118°03'510.1
2018-Aug-13 08:00N 32°57' W 117°58'510.1
2018-Aug-13 07:30N 32°59' W 117°52'510.2
2018-Aug-13 07:00N 33°02' W 117°47'5 9.7
2018-Aug-13 06:30N 33°04' W 117°42'5 9.5
2018-Aug-13 06:00N 33°06' W 117°37'5 9.3
2018-Aug-13 05:30N 33°09' W 117°32'5 9.3
2018-Aug-13 05:00N 33°11' W 117°27'3 6.4
2018-Aug-13 04:30N 33°12' W 117°24'0 0.4
2018-Aug-13 04:00N 33°12' W 117°23'0 0.0
2018-Aug-13 03:30N 33°12' W 117°23'0 0.0
2018-Aug-13 03:00N 33°12' W 117°23'0 0.0
2018-Aug-13 02:30N 33°12' W 117°23'0 0.0
2018-Aug-13 02:00N 33°12' W 117°23'0 0.0
2018-Aug-13 01:30N 33°12' W 117°23'0 0.0
2018-Aug-13 01:00N 33°12' W 117°23'0 0.0
2018-Aug-13 00:30N 33°12' W 117°23'0 0.0
2018-Aug-13 00:00N 33°12' W 117°23'0 0.4
2018-Aug-12 23:30N 33°12' W 117°24'0 0.0
2018-Aug-12 22:58N 33°12' W 117°24'0 0.0
2018-Aug-12 22:30N 33°12' W 117°24'0 0.0
2018-Aug-12 22:00N 33°12' W 117°24'0 0.0
2018-Aug-12 21:29N 33°12' W 117°24'0 0.0
2018-Aug-12 21:00N 33°12' W 117°24'0 0.0
2018-Aug-12 20:30N 33°12' W 117°24'0 0.0
2018-Aug-12 20:00N 33°12' W 117°24'0 0.0
2018-Aug-12 19:30N 33°12' W 117°24'0 0.0
2018-Aug-12 19:00N 33°12' W 117°24'0 0.0
2018-Aug-12 18:29N 33°12' W 117°24'0 0.0
2018-Aug-12 18:00N 33°12' W 117°24'0 0.0
2018-Aug-12 17:30N 33°12' W 117°24'0 0.0
2018-Aug-12 16:58N 33°12' W 117°24'0 0.1
2018-Aug-12 16:30N 33°12' W 117°24'0 0.5
2018-Aug-12 16:00N 33°12' W 117°23'0 0.0
2018-Aug-12 15:30N 33°12' W 117°23'0 0.7
2018-Aug-12 15:00N 33°12' W 117°24'4 7.7
2018-Aug-12 14:30N 33°09' W 117°24'4 8.3
2018-Aug-12 14:00N 33°04' W 117°24'4 8.9
2018-Aug-12 13:30N 33°00' W 117°24'4 8.9
2018-Aug-12 13:00N 32°56' W 117°24'4 8.6
2018-Aug-12 12:30N 32°51' W 117°24'4 8.1
2018-Aug-12 12:00N 32°47' W 117°23'4 7.8
2018-Aug-12 11:30N 32°43' W 117°23'4 7.7
2018-Aug-12 11:00N 32°40' W 117°23'4 7.6
2018-Aug-12 10:30N 32°36' W 117°22'4 7.7
2018-Aug-12 10:00N 32°32' W 117°21'4 7.6
2018-Aug-12 09:30N 32°28' W 117°21'4 8.0
2018-Aug-12 09:00N 32°24' W 117°20'4 8.0
2018-Aug-12 08:30N 32°20' W 117°20'4 7.8
2018-Aug-12 08:00N 32°16' W 117°20'4 7.6
2018-Aug-12 07:30N 32°13' W 117°19'4 7.6
2018-Aug-12 07:00N 32°09' W 117°18'28 1.7
2018-Aug-11 15:11N 31°43' W 117°06'1 4.3
2018-Aug-11 14:57N 31°43' W 117°07'14 7.6
2018-Aug-11 13:03N 31°52' W 117°20'0 7.7
2018-Aug-11 13:00N 31°52' W 117°21'4 8.4
2018-Aug-11 12:30N 31°56' W 117°22'7 8.4
2018-Aug-11 11:42N 32°03' W 117°22'2 8.4
2018-Aug-11 11:30N 32°05' W 117°22'4 8.5
2018-Aug-11 11:00N 32°09' W 117°22'4 8.6
2018-Aug-11 10:30N 32°13' W 117°23'4 8.6
2018-Aug-11 10:00N 32°17' W 117°23'4 8.5
2018-Aug-11 09:30N 32°22' W 117°24'4 8.5
2018-Aug-11 09:00N 32°26' W 117°24'4 8.6
2018-Aug-11 08:30N 32°30' W 117°24'4 8.6
2018-Aug-11 08:00N 32°34' W 117°25'4 8.4
2018-Aug-11 07:30N 32°39' W 117°25'4 8.4
2018-Aug-11 07:00N 32°43' W 117°25'4 8.4
2018-Aug-11 06:30N 32°47' W 117°26'4 8.4
2018-Aug-11 06:00N 32°51' W 117°26'4 8.1
2018-Aug-11 05:30N 32°55' W 117°27'4 8.1
2018-Aug-11 05:00N 32°59' W 117°27'4 8.2
2018-Aug-11 04:30N 33°03' W 117°27'4 8.3
2018-Aug-11 04:00N 33°07' W 117°26'4 8.2
2018-Aug-11 03:30N 33°11' W 117°25'1 2.8
2018-Aug-11 03:00N 33°12' W 117°24'0 0.4
2018-Aug-11 02:30N 33°12' W 117°23'0 0.0
2018-Aug-11 02:00N 33°12' W 117°23'0 0.0
2018-Aug-11 01:30N 33°12' W 117°23'0 0.0
2018-Aug-11 01:00N 33°12' W 117°23'0 0.0
2018-Aug-11 00:30N 33°12' W 117°23'0 0.0
2018-Aug-11 00:00N 33°12' W 117°23'0 0.4
2018-Aug-10 23:28N 33°12' W 117°24'0 0.0
2018-Aug-10 23:00N 33°12' W 117°24'0 0.0
2018-Aug-10 22:30N 33°12' W 117°24'0 0.0
2018-Aug-10 22:00N 33°12' W 117°24'0 0.0
2018-Aug-10 21:30N 33°12' W 117°24'0 0.0
2018-Aug-10 21:00N 33°12' W 117°24'0 0.0
2018-Aug-10 20:30N 33°12' W 117°24'0 0.0
2018-Aug-10 20:00N 33°12' W 117°24'0 0.0
2018-Aug-10 19:30N 33°12' W 117°24'0 0.0
2018-Aug-10 19:00N 33°12' W 117°24'0 0.0
2018-Aug-10 18:30N 33°12' W 117°24'0 0.0
2018-Aug-10 18:00N 33°12' W 117°24'0 0.0
2018-Aug-10 17:30N 33°12' W 117°24'0 0.0
2018-Aug-10 17:00N 33°12' W 117°24'0 0.4
2018-Aug-10 16:30N 33°12' W 117°23'0 0.0
2018-Aug-10 16:00N 33°12' W 117°23'  
Track history (hours):
 
Tides and Currents Weather Stations Pressure Air Temp Water Temp Dewpoint Dewpoint Depression Visibility Wind Speed Wind Dir Waves Ship Positions

Oceanside 95

Owner: HELGRENS OCEANSIDE SPORTFISHING TRIPS IN, OCEANSIDE, CA. More information available from US FCC via Universal Licensing System and Coast Guard Vessel Documentation Center.

Last reported at 2018-Aug-20 16:04 UTC. Time now 2018-Aug-20 16:19 UTC.
Position N 33°12' W 117°23'.

Type: Wing in ground effect craft. MMSI: 367150450.

Date/timePositionNaut miles runAvg speedWind from/ knotsBaromVisibWave heightAir tempDewpointWater temp
2018-Aug-20 16:04N 33°12' W 117°23'0 0.0
2018-Aug-20 16:00N 33°12' W 117°23'0 0.0
2018-Aug-20 15:31N 33°12' W 117°23'0 0.0
2018-Aug-20 15:03N 33°12' W 117°23'0 0.0
2018-Aug-20 15:00N 33°12' W 117°23'0 0.0
2018-Aug-20 14:03N 33°12' W 117°23'0 0.0
2018-Aug-20 14:01N 33°12' W 117°23'0 0.0
2018-Aug-20 13:31N 33°12' W 117°23'0 0.0
2018-Aug-20 13:04N 33°12' W 117°23'0 0.0
2018-Aug-20 13:01N 33°12' W 117°23'0 0.0
2018-Aug-20 12:30N 33°12' W 117°23'0 0.0
2018-Aug-20 12:03N 33°12' W 117°23'0 0.2
2018-Aug-20 12:00N 33°12' W 117°23'0 0.0
2018-Aug-20 11:30N 33°12' W 117°23'0 0.0
2018-Aug-20 11:03N 33°12' W 117°23'0 0.0
2018-Aug-20 11:01N 33°12' W 117°23'0 0.0
2018-Aug-20 10:30N 33°12' W 117°23'0 0.0
2018-Aug-20 10:03N 33°12' W 117°23'0 0.0
2018-Aug-20 10:00N 33°12' W 117°23'0 0.0
2018-Aug-20 09:30N 33°12' W 117°23'0 0.0
2018-Aug-20 09:03N 33°12' W 117°23'0 0.0
2018-Aug-20 09:00N 33°12' W 117°23'0 0.0
2018-Aug-20 08:30N 33°12' W 117°23'0 0.0
2018-Aug-20 08:04N 33°12' W 117°23'0 0.0
2018-Aug-20 08:00N 33°12' W 117°23'0 0.0
2018-Aug-20 07:31N 33°12' W 117°23'0 0.0
2018-Aug-20 07:04N 33°12' W 117°23'0 0.1
2018-Aug-20 07:00N 33°12' W 117°23'0 0.0
2018-Aug-20 06:30N 33°12' W 117°23'0 0.0
2018-Aug-20 06:04N 33°12' W 117°23'0 0.1
2018-Aug-20 06:01N 33°12' W 117°23'0 0.0
2018-Aug-20 05:30N 33°12' W 117°23'0 0.0
2018-Aug-20 05:03N 33°12' W 117°23'0 0.0
2018-Aug-20 05:00N 33°12' W 117°23'0 0.0
2018-Aug-20 04:47N 33°12' W 117°23'0 0.0
2018-Aug-20 04:30N 33°12' W 117°23'0 0.0
2018-Aug-20 04:00N 33°12' W 117°23'0 0.0
2018-Aug-20 03:30N 33°12' W 117°23'0 0.0
2018-Aug-20 03:00N 33°12' W 117°23'0 0.1
2018-Aug-20 02:30N 33°12' W 117°23'4 7.4
2018-Aug-20 02:00N 33°10' W 117°27'5 9.4
2018-Aug-20 01:31N 33°06' W 117°30'5 9.4
2018-Aug-20 01:00N 33°03' W 117°34'5 9.6
2018-Aug-20 00:31N 32°59' W 117°38'5 9.7
2018-Aug-20 00:00N 32°55' W 117°41'5 9.5
2018-Aug-19 23:30N 32°51' W 117°45'5 9.2
2018-Aug-19 23:00N 32°48' W 117°48'5 9.4
2018-Aug-19 22:30N 32°44' W 117°52'5 9.5
2018-Aug-19 22:01N 32°41' W 117°55'3 6.3
2018-Aug-19 21:30N 32°38' W 117°58'4 8.7
2018-Aug-19 21:00N 32°35' W 118°02'3 6.1
2018-Aug-19 20:31N 32°37' W 118°05'3 5.9
2018-Aug-19 20:00N 32°39' W 118°07'2 5.0
2018-Aug-19 19:31N 32°40' W 118°10'4 7.0
2018-Aug-19 19:00N 32°40' W 118°14'2 3.3
2018-Aug-19 18:30N 32°41' W 118°16'4 7.7
2018-Aug-19 18:00N 32°41' W 118°21'2 4.8
2018-Aug-19 17:29N 32°42' W 118°23'3 5.3
2018-Aug-19 17:00N 32°43' W 118°26'4 7.0
2018-Aug-19 16:30N 32°45' W 118°29'4 8.1
2018-Aug-19 16:01N 32°48' W 118°33'4 6.9
2018-Aug-19 15:30N 32°50' W 118°36'2 4.1
2018-Aug-19 14:58N 32°48' W 118°35'3 6.0
2018-Aug-19 14:26N 32°47' W 118°31'3 7.4
2018-Aug-19 14:01N 32°48' W 118°35'1 1.7
2018-Aug-19 13:29N 32°48' W 118°36'0 0.3
2018-Aug-19 13:00N 32°48' W 118°36'0 0.2
2018-Aug-19 12:26N 32°48' W 118°36'0 0.2
2018-Aug-19 12:00N 32°48' W 118°36'0 0.3
2018-Aug-19 11:30N 32°48' W 118°36'0 0.4
2018-Aug-19 10:59N 32°48' W 118°35'0 0.8
2018-Aug-19 10:30N 32°48' W 118°35'3 4.9
2018-Aug-19 09:58N 32°51' W 118°37'0 0.7
2018-Aug-19 09:30N 32°51' W 118°37'0 0.6
2018-Aug-19 09:00N 32°51' W 118°37'0 0.6
2018-Aug-19 08:30N 32°52' W 118°37'0 0.6
2018-Aug-19 08:00N 32°52' W 118°37'1 1.3
2018-Aug-19 07:30N 32°51' W 118°36'0 0.7
2018-Aug-19 07:01N 32°52' W 118°36'0 0.8
2018-Aug-19 06:27N 32°52' W 118°37'0 0.5
2018-Aug-19 05:50N 32°52' W 118°37'0 0.4
2018-Aug-19 05:26N 32°52' W 118°37'0 0.2
2018-Aug-19 04:48N 32°52' W 118°37'1 2.6
2018-Aug-19 04:23N 32°51' W 118°36'3 7.0
2018-Aug-19 04:01N 32°48' W 118°35'0 0.4
2018-Aug-19 03:30N 32°48' W 118°36'0 0.7
2018-Aug-19 03:00N 32°49' W 118°36'1 1.5
2018-Aug-19 02:30N 32°48' W 118°36'0 0.7
2018-Aug-19 02:00N 32°48' W 118°35'0 0.6
2018-Aug-19 01:26N 32°48' W 118°35'0 0.8
2018-Aug-19 01:00N 32°48' W 118°35'0 0.5
2018-Aug-19 00:30N 32°49' W 118°35'1 2.1
2018-Aug-19 00:00N 32°49' W 118°35'4 4.7
2018-Aug-18 23:12N 32°53' W 118°36'2 9.2
2018-Aug-18 23:00N 32°55' W 118°37'4 8.9
2018-Aug-18 22:30N 32°59' W 118°39'1 2.5
2018-Aug-18 22:00N 33°00' W 118°39'1 2.8
2018-Aug-18 21:30N 32°60' W 118°38'0 0.8
2018-Aug-18 21:00N 32°60' W 118°38'1 1.4
2018-Aug-18 20:30N 33°00' W 118°38'1 1.8
2018-Aug-18 20:00N 32°60' W 118°37'0 0.6
2018-Aug-18 19:30N 32°60' W 118°37'2 3.8
2018-Aug-18 19:00N 32°58' W 118°36'4 6.8
2018-Aug-18 18:24N 32°54' W 118°36'4 5.0
2018-Aug-18 17:38N 32°50' W 118°36'1 4.2
2018-Aug-18 17:30N 32°51' W 118°35'1 1.1
2018-Aug-18 17:00N 32°51' W 118°35'1 2.1
2018-Aug-18 16:30N 32°52' W 118°34'1 2.7
2018-Aug-18 16:00N 32°51' W 118°34'3 5.1
2018-Aug-18 15:30N 32°53' W 118°36'0 0.3
2018-Aug-18 15:00N 32°53' W 118°37'0 0.2
2018-Aug-18 14:30N 32°53' W 118°37'0 0.2
2018-Aug-18 14:00N 32°52' W 118°37'0 0.4
2018-Aug-18 13:30N 32°52' W 118°37'0 0.3
2018-Aug-18 13:00N 32°52' W 118°37'0 0.3
2018-Aug-18 12:30N 32°52' W 118°37'1 2.1
2018-Aug-18 12:00N 32°52' W 118°36'1 1.5
2018-Aug-18 11:30N 32°53' W 118°36'1 1.2
2018-Aug-18 11:00N 32°53' W 118°35'4 8.3
2018-Aug-18 10:28N 32°49' W 118°32'4 8.4
2018-Aug-18 09:57N 32°47' W 118°27'4 9.0
2018-Aug-18 09:30N 32°47' W 118°23'5 9.0
2018-Aug-18 09:00N 32°50' W 118°18'5 9.2
2018-Aug-18 08:30N 32°52' W 118°13'5 9.1
2018-Aug-18 08:00N 32°54' W 118°09'5 9.4
2018-Aug-18 07:29N 32°56' W 118°03'5 9.3
2018-Aug-18 07:00N 32°58' W 117°58'5 9.4
2018-Aug-18 06:30N 32°60' W 117°53'5 9.1
2018-Aug-18 06:00N 33°02' W 117°48'4 8.9
2018-Aug-18 05:30N 33°04' W 117°44'5 9.0
2018-Aug-18 05:00N 33°06' W 117°39'5 9.3
2018-Aug-18 04:30N 33°08' W 117°34'4 8.9
2018-Aug-18 04:00N 33°10' W 117°29'4 8.4
2018-Aug-18 03:30N 33°12' W 117°25'1 2.4
2018-Aug-18 03:00N 33°12' W 117°23'0 0.4
2018-Aug-18 02:30N 33°12' W 117°24'0 0.0
2018-Aug-18 02:00N 33°12' W 117°24'0 0.0
2018-Aug-18 01:30N 33°12' W 117°24'0 0.0
2018-Aug-18 01:00N 33°12' W 117°24'0 0.0
2018-Aug-18 00:30N 33°12' W 117°24'0 0.0
2018-Aug-18 00:00N 33°12' W 117°24'0 0.0
2018-Aug-17 23:30N 33°12' W 117°24'0 0.0
2018-Aug-17 23:00N 33°12' W 117°24'0 0.0
2018-Aug-17 22:30N 33°12' W 117°24'0 0.0
2018-Aug-17 22:00N 33°12' W 117°24'0 0.0
2018-Aug-17 21:30N 33°12' W 117°24'0 0.2
2018-Aug-17 21:00N 33°12' W 117°24'0 0.2
2018-Aug-17 20:30N 33°12' W 117°24'0 0.0
2018-Aug-17 20:00N 33°12' W 117°24'0 0.0
2018-Aug-17 19:30N 33°12' W 117°24'0 0.0
2018-Aug-17 19:00N 33°12' W 117°24'0 0.0
2018-Aug-17 18:30N 33°12' W 117°24'0 0.0
2018-Aug-17 18:00N 33°12' W 117°24'0 0.0
2018-Aug-17 17:30N 33°12' W 117°24'0 0.0
2018-Aug-17 17:00N 33°12' W 117°24'0 0.0
2018-Aug-17 16:30N 33°12' W 117°24'0 0.0
2018-Aug-17 16:00N 33°12' W 117°24'0 0.1
2018-Aug-17 15:30N 33°12' W 117°24'0 0.3
2018-Aug-17 15:00N 33°12' W 117°23'0 0.0
2018-Aug-17 14:30N 33°12' W 117°23'3 3.2
2018-Aug-17 13:30N 33°09' W 117°25'3 6.2
2018-Aug-17 13:00N 33°06' W 117°25'3 6.4
2018-Aug-17 12:30N 33°03' W 117°25'3 6.5
2018-Aug-17 12:01N 32°60' W 117°25'3 6.5
2018-Aug-17 11:30N 32°57' W 117°26'3 6.3
2018-Aug-17 11:00N 32°53' W 117°26'3 6.3
2018-Aug-17 10:30N 32°50' W 117°26'3 6.4
2018-Aug-17 10:00N 32°47' W 117°26'3 6.5
2018-Aug-17 09:30N 32°44' W 117°26'3 6.6
2018-Aug-17 09:00N 32°40' W 117°26'3 6.5
2018-Aug-17 08:30N 32°37' W 117°26'3 6.2
2018-Aug-17 08:00N 32°34' W 117°26'3 6.2
2018-Aug-17 07:30N 32°31' W 117°27'3 6.7
2018-Aug-17 07:00N 32°28' W 117°27'3 6.9
2018-Aug-17 06:30N 32°24' W 117°27'4 6.7
2018-Aug-17 05:58N 32°21' W 117°27'3 6.5
2018-Aug-17 05:30N 32°18' W 117°28'3 6.4
2018-Aug-17 05:00N 32°15' W 117°28'4 6.4
2018-Aug-17 04:23N 32°11' W 117°28'10 0.5
2018-Aug-16 08:41N 32°18' W 117°20'4 7.7
2018-Aug-16 08:09N 32°22' W 117°20'2 7.9
2018-Aug-16 07:53N 32°24' W 117°20'3 7.8
2018-Aug-16 07:30N 32°27' W 117°21'4 7.8
2018-Aug-16 07:00N 32°31' W 117°21'4 8.1
2018-Aug-16 06:30N 32°35' W 117°22'4 8.1
2018-Aug-16 05:59N 32°39' W 117°22'4 7.9
2018-Aug-16 05:30N 32°43' W 117°23'4 7.7
2018-Aug-16 05:00N 32°47' W 117°23'4 8.2
2018-Aug-16 04:30N 32°51' W 117°23'4 8.3
2018-Aug-16 04:00N 32°55' W 117°23'4 8.1
2018-Aug-16 03:30N 32°59' W 117°24'4 8.0
2018-Aug-16 03:00N 33°03' W 117°24'4 8.2
2018-Aug-16 02:30N 33°07' W 117°24'4 8.2
2018-Aug-16 02:00N 33°11' W 117°24'1 3.0
2018-Aug-16 01:30N 33°12' W 117°24'0 0.5
2018-Aug-16 01:00N 33°12' W 117°23'0 0.0
2018-Aug-16 00:30N 33°12' W 117°23'0 0.0
2018-Aug-16 00:00N 33°12' W 117°23'0 0.0
2018-Aug-15 23:30N 33°12' W 117°23'0 0.0
2018-Aug-15 23:00N 33°12' W 117°23'0 0.4
2018-Aug-15 22:30N 33°12' W 117°24'0 0.0
2018-Aug-15 22:00N 33°12' W 117°24'0 0.0
2018-Aug-15 21:30N 33°12' W 117°24'0 0.0
2018-Aug-15 21:00N 33°12' W 117°24'0 0.0
2018-Aug-15 20:30N 33°12' W 117°24'0 0.0
2018-Aug-15 20:00N 33°12' W 117°24'0 0.0
2018-Aug-15 19:30N 33°12' W 117°24'0 0.0
2018-Aug-15 19:00N 33°12' W 117°24'0 0.0
2018-Aug-15 18:30N 33°12' W 117°24'0 0.0
2018-Aug-15 18:00N 33°12' W 117°24'0 0.0
2018-Aug-15 17:30N 33°12' W 117°24'0 0.0
2018-Aug-15 17:00N 33°12' W 117°24'0 0.4
2018-Aug-15 16:30N 33°12' W 117°23'0 0.0
2018-Aug-15 16:00N 33°12' W 117°23'0 0.0
2018-Aug-15 15:30N 33°12' W 117°23'0 0.0
2018-Aug-15 15:00N 33°12' W 117°23'0 0.0
2018-Aug-15 14:30N 33°12' W 117°23'0 0.0
2018-Aug-15 14:00N 33°12' W 117°23'0 0.0
2018-Aug-15 13:30N 33°12' W 117°23'0 0.0
2018-Aug-15 13:00N 33°12' W 117°23'0 0.0
2018-Aug-15 12:30N 33°12' W 117°23'0 0.0
2018-Aug-15 12:00N 33°12' W 117°23'0 0.0
2018-Aug-15 11:30N 33°12' W 117°23'0 0.0
2018-Aug-15 11:00N 33°12' W 117°23'0 0.0
2018-Aug-15 10:30N 33°12' W 117°23'0 0.0
2018-Aug-15 10:00N 33°12' W 117°23'0 0.0
2018-Aug-15 09:30N 33°12' W 117°23'0 0.0
2018-Aug-15 09:00N 33°12' W 117°23'0 0.0
2018-Aug-15 08:30N 33°12' W 117°23'0 0.0
2018-Aug-15 08:00N 33°12' W 117°23'0 0.0
2018-Aug-15 07:30N 33°12' W 117°23'0 0.0
2018-Aug-15 07:00N 33°12' W 117°23'0 0.0
2018-Aug-15 06:30N 33°12' W 117°23'0 0.0
2018-Aug-15 06:00N 33°12' W 117°23'0 0.0
2018-Aug-15 05:30N 33°12' W 117°23'0 0.0
2018-Aug-15 05:00N 33°12' W 117°23'0 0.0
2018-Aug-15 04:30N 33°12' W 117°23'0 0.0
2018-Aug-15 04:00N 33°12' W 117°23'2 3.3
2018-Aug-15 03:30N 33°12' W 117°25'5 9.4
2018-Aug-15 03:00N 33°09' W 117°30'5 9.2
2018-Aug-15 02:30N 33°07' W 117°35'5 9.2
2018-Aug-15 02:00N 33°04' W 117°39'4 8.5
2018-Aug-15 01:30N 33°02' W 117°44'4 8.7
2018-Aug-15 01:00N 32°60' W 117°48'4 8.4
2018-Aug-15 00:30N 32°58' W 117°52'4 8.4
2018-Aug-15 00:00N 32°56' W 117°57'4 8.7
2018-Aug-14 23:30N 32°54' W 118°01'4 8.8
2018-Aug-14 23:00N 32°51' W 118°06'5 9.3
2018-Aug-14 22:30N 32°49' W 118°11'5 9.5
2018-Aug-14 22:00N 32°47' W 118°16'4 9.2
2018-Aug-14 21:31N 32°44' W 118°20'5 9.0
2018-Aug-14 21:00N 32°43' W 118°25'4 7.6
2018-Aug-14 20:30N 32°46' W 118°29'4 1.4
2018-Aug-14 17:54N 32°49' W 118°30'4 8.7
2018-Aug-14 17:30N 32°47' W 118°34'1 2.4
2018-Aug-14 17:00N 32°47' W 118°35'0 0.7
2018-Aug-14 16:30N 32°47' W 118°35'3 5.5
2018-Aug-14 16:00N 32°48' W 118°32'2 3.1
2018-Aug-14 15:26N 32°49' W 118°33'3 5.6
2018-Aug-14 14:52N 32°51' W 118°36'2 5.8
2018-Aug-14 14:30N 32°52' W 118°38'1 1.6
2018-Aug-14 14:00N 32°52' W 118°38'0 0.2
2018-Aug-14 13:24N 32°52' W 118°38'0 0.3
2018-Aug-14 12:54N 32°52' W 118°38'0 0.4
2018-Aug-14 12:29N 32°52' W 118°38'1 0.9
2018-Aug-14 11:06N 32°51' W 118°37'0 0.3
2018-Aug-14 11:00N 32°51' W 118°37'1 1.3
2018-Aug-14 10:30N 32°52' W 118°38'2 3.2
2018-Aug-14 10:00N 32°52' W 118°36'3 6.1
2018-Aug-14 09:30N 32°49' W 118°36'2 4.5
2018-Aug-14 09:00N 32°46' W 118°35'1 1.5
2018-Aug-14 08:30N 32°46' W 118°35'1 1.6
2018-Aug-14 07:57N 32°45' W 118°36'2 4.3
2018-Aug-14 07:30N 32°44' W 118°38'3 5.6
2018-Aug-14 07:00N 32°42' W 118°41'3 5.7
2018-Aug-14 06:30N 32°41' W 118°44'3 5.6
2018-Aug-14 06:00N 32°39' W 118°46'3 5.5
2018-Aug-14 05:30N 32°38' W 118°49'3 5.6
2018-Aug-14 05:00N 32°36' W 118°51'3 5.7
2018-Aug-14 04:30N 32°33' W 118°54'3 5.6
2018-Aug-14 04:00N 32°32' W 118°56'3 5.9
2018-Aug-14 03:29N 32°30' W 118°59'3 5.7
2018-Aug-14 03:00N 32°28' W 119°02'3 5.7
2018-Aug-14 02:26N 32°26' W 119°05'0 0.1
2018-Aug-13 21:13N 32°26' W 119°05'0 0.0
2018-Aug-13 20:59N 32°26' W 119°05'0 0.0
2018-Aug-13 20:10N 32°26' W 119°05'0 0.0
2018-Aug-13 19:51N 32°26' W 119°05'0 0.0
2018-Aug-13 19:20N 32°26' W 119°05'0 0.1
2018-Aug-13 17:47N 32°26' W 119°05'0 0.0
2018-Aug-13 17:16N 32°26' W 119°05'0 0.2
2018-Aug-13 17:00N 32°26' W 119°05'0 0.0
2018-Aug-13 16:29N 32°26' W 119°05'0 0.1
2018-Aug-13 16:00N 32°26' W 119°05'0 0.1
2018-Aug-13 15:30N 32°26' W 119°05'0 0.1
2018-Aug-13 15:00N 32°26' W 119°05'3 5.5
2018-Aug-13 14:30N 32°27' W 119°02'4 8.6
2018-Aug-13 14:00N 32°29' W 118°57'4 8.3
2018-Aug-13 13:30N 32°31' W 118°53'4 9.0
2018-Aug-13 13:00N 32°33' W 118°49'5 9.4
2018-Aug-13 12:29N 32°35' W 118°43'5 9.7
2018-Aug-13 12:00N 32°38' W 118°39'510.0
2018-Aug-13 11:30N 32°40' W 118°34'510.1
2018-Aug-13 11:00N 32°43' W 118°28'5 9.8
2018-Aug-13 10:30N 32°45' W 118°23'5 9.6
2018-Aug-13 10:00N 32°47' W 118°18'5 9.6
2018-Aug-13 09:29N 32°50' W 118°13'5 9.8
2018-Aug-13 09:00N 32°52' W 118°08'510.0
2018-Aug-13 08:30N 32°55' W 118°03'510.1
2018-Aug-13 08:00N 32°57' W 117°58'510.1
2018-Aug-13 07:30N 32°59' W 117°52'510.2
2018-Aug-13 07:00N 33°02' W 117°47'5 9.7
2018-Aug-13 06:30N 33°04' W 117°42'5 9.5
2018-Aug-13 06:00N 33°06' W 117°37'5 9.3
2018-Aug-13 05:30N 33°09' W 117°32'5 9.3
2018-Aug-13 05:00N 33°11' W 117°27'3 6.4
2018-Aug-13 04:30N 33°12' W 117°24'0 0.4
2018-Aug-13 04:00N 33°12' W 117°23'0 0.0
2018-Aug-13 03:30N 33°12' W 117°23'0 0.0
2018-Aug-13 03:00N 33°12' W 117°23'0 0.0
2018-Aug-13 02:30N 33°12' W 117°23'0 0.0
2018-Aug-13 02:00N 33°12' W 117°23'0 0.0
2018-Aug-13 01:30N 33°12' W 117°23'0 0.0
2018-Aug-13 01:00N 33°12' W 117°23'0 0.0
2018-Aug-13 00:30N 33°12' W 117°23'0 0.0
2018-Aug-13 00:00N 33°12' W 117°23'0 0.4
2018-Aug-12 23:30N 33°12' W 117°24'0 0.0
2018-Aug-12 22:58N 33°12' W 117°24'0 0.0
2018-Aug-12 22:30N 33°12' W 117°24'0 0.0
2018-Aug-12 22:00N 33°12' W 117°24'0 0.0
2018-Aug-12 21:29N 33°12' W 117°24'0 0.0
2018-Aug-12 21:00N 33°12' W 117°24'0 0.0
2018-Aug-12 20:30N 33°12' W 117°24'0 0.0
2018-Aug-12 20:00N 33°12' W 117°24'0 0.0
2018-Aug-12 19:30N 33°12' W 117°24'0 0.0
2018-Aug-12 19:00N 33°12' W 117°24'0 0.0
2018-Aug-12 18:29N 33°12' W 117°24'0 0.0
2018-Aug-12 18:00N 33°12' W 117°24'0 0.0
2018-Aug-12 17:30N 33°12' W 117°24'0 0.0
2018-Aug-12 16:58N 33°12' W 117°24'0 0.1
2018-Aug-12 16:30N 33°12' W 117°24'0 0.5
2018-Aug-12 16:00N 33°12' W 117°23'0 0.0
2018-Aug-12 15:30N 33°12' W 117°23'0 0.7
2018-Aug-12 15:00N 33°12' W 117°24'4 7.7
2018-Aug-12 14:30N 33°09' W 117°24'4 8.3
2018-Aug-12 14:00N 33°04' W 117°24'4 8.9
2018-Aug-12 13:30N 33°00' W 117°24'4 8.9
2018-Aug-12 13:00N 32°56' W 117°24'4 8.6
2018-Aug-12 12:30N 32°51' W 117°24'4 8.1
2018-Aug-12 12:00N 32°47' W 117°23'4 7.8
2018-Aug-12 11:30N 32°43' W 117°23'4 7.7
2018-Aug-12 11:00N 32°40' W 117°23'4 7.6
2018-Aug-12 10:30N 32°36' W 117°22'4 7.7
2018-Aug-12 10:00N 32°32' W 117°21'4 7.6
2018-Aug-12 09:30N 32°28' W 117°21'4 8.0
2018-Aug-12 09:00N 32°24' W 117°20'4 8.0
2018-Aug-12 08:30N 32°20' W 117°20'4 7.8
2018-Aug-12 08:00N 32°16' W 117°20'4 7.6
2018-Aug-12 07:30N 32°13' W 117°19'4 7.6
2018-Aug-12 07:00N 32°09' W 117°18'28 1.7
2018-Aug-11 15:11N 31°43' W 117°06'1 4.3
2018-Aug-11 14:57N 31°43' W 117°07'14 7.6
2018-Aug-11 13:03N 31°52' W 117°20'0 7.7
2018-Aug-11 13:00N 31°52' W 117°21'4 8.4
2018-Aug-11 12:30N 31°56' W 117°22'7 8.4
2018-Aug-11 11:42N 32°03' W 117°22'2 8.4
2018-Aug-11 11:30N 32°05' W 117°22'4 8.5
2018-Aug-11 11:00N 32°09' W 117°22'4 8.6
2018-Aug-11 10:30N 32°13' W 117°23'4 8.6
2018-Aug-11 10:00N 32°17' W 117°23'4 8.5
2018-Aug-11 09:30N 32°22' W 117°24'4 8.5
2018-Aug-11 09:00N 32°26' W 117°24'4 8.6
2018-Aug-11 08:30N 32°30' W 117°24'4 8.6
2018-Aug-11 08:00N 32°34' W 117°25'4 8.4
2018-Aug-11 07:30N 32°39' W 117°25'4 8.4
2018-Aug-11 07:00N 32°43' W 117°25'4 8.4
2018-Aug-11 06:30N 32°47' W 117°26'4 8.4
2018-Aug-11 06:00N 32°51' W 117°26'4 8.1
2018-Aug-11 05:30N 32°55' W 117°27'4 8.1
2018-Aug-11 05:00N 32°59' W 117°27'4 8.2
2018-Aug-11 04:30N 33°03' W 117°27'4 8.3
2018-Aug-11 04:00N 33°07' W 117°26'4 8.2
2018-Aug-11 03:30N 33°11' W 117°25'1 2.8
2018-Aug-11 03:00N 33°12' W 117°24'0 0.4
2018-Aug-11 02:30N 33°12' W 117°23'0 0.0
2018-Aug-11 02:00N 33°12' W 117°23'0 0.0
2018-Aug-11 01:30N 33°12' W 117°23'0 0.0
2018-Aug-11 01:00N 33°12' W 117°23'0 0.0
2018-Aug-11 00:30N 33°12' W 117°23'0 0.0
2018-Aug-11 00:00N 33°12' W 117°23'0 0.4
2018-Aug-10 23:28N 33°12' W 117°24'0 0.0
2018-Aug-10 23:00N 33°12' W 117°24'0 0.0
2018-Aug-10 22:30N 33°12' W 117°24'0 0.0
2018-Aug-10 22:00N 33°12' W 117°24'0 0.0
2018-Aug-10 21:30N 33°12' W 117°24'0 0.0
2018-Aug-10 21:00N 33°12' W 117°24'0 0.0
2018-Aug-10 20:30N 33°12' W 117°24'0 0.0
2018-Aug-10 20:00N 33°12' W 117°24'0 0.0
2018-Aug-10 19:30N 33°12' W 117°24'0 0.0
2018-Aug-10 19:00N 33°12' W 117°24'0 0.0
2018-Aug-10 18:30N 33°12' W 117°24'0 0.0
2018-Aug-10 18:00N 33°12' W 117°24'0 0.0
2018-Aug-10 17:30N 33°12' W 117°24'0 0.0
2018-Aug-10 17:00N 33°12' W 117°24'0 0.4
2018-Aug-10 16:30N 33°12' W 117°23'0 0.0
2018-Aug-10 16:00N 33°12' W 117°23'  

Dump ship's entire track history